Time;durP1;ratioP1;P1;durP2;ratioP2;P2;SDS_P1;SDS_P2;PMS_P1;PMS_P2;Temp;Humidity;BMP_temperature;BMP_pressure;BME280_temperature;BME280_humidity;BME280_pressure;Samples;Min_cycle;Max_cycle;Signal;HPM_P1;HPM_P2
2023/07/05 00:01:11;;;;;;;27.27;13.43;;;;;;;28.42;38.82;99391.66;5075930;28;20132;-70
2023/07/05 00:03:37;;;;;;;32.53;13.13;;;;;;;28.23;38.70;99404.28;5058891;28;20043;-70
2023/07/05 00:06:06;;;;;;;26.45;13.07;;;;;;;28.53;39.04;99408.84;5042387;28;20044;-70
2023/07/05 00:08:34;;;;;;;26.25;13.18;;;;;;;28.31;38.91;99402.94;5042495;28;20044;-70
2023/07/05 00:11:07;;;;;;;29.13;13.15;;;;;;;28.53;38.90;99406.94;5042541;28;20046;-70
2023/07/05 00:13:34;;;;;;;30.42;13.55;;;;;;;28.35;39.13;99404.81;5042241;28;20043;-70
2023/07/05 00:16:01;;;;;;;24.05;12.48;;;;;;;28.28;39.05;99414.41;5058555;28;20242;-70
2023/07/05 00:18:28;;;;;;;23.40;12.85;;;;;;;28.31;39.32;99411.13;5075290;28;20138;-69
2023/07/05 00:20:59;;;;;;;24.38;11.35;;;;;;;28.24;39.96;99407.84;5058545;28;20122;-70
2023/07/05 00:23:25;;;;;;;22.75;11.63;;;;;;;27.98;40.02;99409.84;5041937;28;20062;-69
2023/07/05 00:25:52;;;;;;;19.85;11.15;;;;;;;28.14;40.13;99418.81;5042677;28;20467;-70
2023/07/05 00:28:18;;;;;;;21.85;11.85;;;;;;;28.08;39.93;99409.81;5042083;28;20032;-70
2023/07/05 00:30:46;;;;;;;20.73;10.75;;;;;;;27.98;40.19;99412.56;5059260;28;20039;-70
2023/07/05 00:33:12;;;;;;;19.83;11.38;;;;;;;28.02;40.04;99418.31;5043027;28;20142;-70
2023/07/05 00:35:47;;;;;;;20.52;10.73;;;;;;;28.24;40.38;99424.22;5058432;28;20139;-70
2023/07/05 00:38:12;;;;;;;21.55;11.95;;;;;;;27.83;40.61;99421.56;5042183;28;20162;-70
2023/07/05 00:40:38;;;;;;;20.25;11.05;;;;;;;27.80;40.88;99411.19;5041632;28;20130;-70
2023/07/05 00:43:04;;;;;;;23.77;12.57;;;;;;;27.93;40.78;99409.84;5041656;28;20044;-70
2023/07/05 00:46:02;;;;;;;20.52;11.55;;;;;;;28.18;40.73;99414.41;5041497;28;20051;-70
2023/07/05 00:48:57;;;;;;;23.05;11.20;;;;;;;28.12;40.90;99413.63;5043065;28;20132;-70
2023/07/05 00:51:51;;;;;;;16.38;10.40;;;;;;;28.08;40.88;99415.25;5058062;28;20460;-70
2023/07/05 00:54:22;;;;;;;25.50;10.35;;;;;;;27.96;40.95;99417.47;5058301;28;20039;-70
2023/07/05 00:56:52;;;;;;;16.38;9.85;;;;;;;27.90;41.35;99421.31;5041957;28;20040;-71
2023/07/05 00:59:19;;;;;;;25.48;10.57;;;;;;;27.81;41.46;99422.94;5041447;28;20039;-70
2023/07/05 01:01:45;;;;;;;18.23;9.93;;;;;;;27.62;41.55;99430.03;5058111;28;20146;-70
2023/07/05 01:04:12;;;;;;;21.85;9.38;;;;;;;27.55;42.04;99429.50;5074852;28;20057;-70
2023/07/05 01:06:39;;;;;;;21.60;9.60;;;;;;;27.51;42.23;99436.56;5058926;28;20476;-70
2023/07/05 01:09:08;;;;;;;16.70;9.13;;;;;;;27.57;42.31;99436.31;5043315;28;20102;-69
2023/07/05 01:11:55;;;;;;;20.83;9.43;;;;;;;27.65;42.43;99416.66;5057381;28;20055;-69
2023/07/05 01:14:33;;;;;;;15.73;9.02;;;;;;;27.82;42.25;99427.28;5057899;28;20051;-70
2023/07/05 01:17:17;;;;;;;16.80;9.82;;;;;;;27.37;42.81;99430.84;5057996;28;20440;-70
2023/07/05 01:19:55;;;;;;;15.82;9.20;;;;;;;27.34;42.74;99425.13;5090990;28;20044;-70
2023/07/05 01:22:52;;;;;;;18.85;9.60;;;;;;;27.86;42.36;99428.41;5041133;28;20044;-70
2023/07/05 01:25:55;;;;;;;18.67;9.38;;;;;;;27.92;42.12;99433.59;5074390;28;20113;-70
2023/07/05 01:28:46;;;;;;;16.08;8.98;;;;;;;27.81;42.35;99422.94;5073681;28;20334;-70
2023/07/05 01:31:54;;;;;;;18.40;9.13;;;;;;;27.85;42.20;99429.47;5073908;28;20043;-70
2023/07/05 01:34:51;;;;;;;19.90;9.60;;;;;;;27.77;42.34;99419.09;5057464;28;20408;-71
2023/07/05 01:37:37;;;;;;;20.83;9.60;;;;;;;27.87;42.24;99425.44;5074308;28;20138;-70
2023/07/05 01:40:35;;;;;;;17.17;9.27;;;;;;;27.84;42.13;99408.72;5057520;28;20044;-70
2023/07/05 01:43:05;;;;;;;15.43;9.05;;;;;;;27.82;42.33;99422.66;5073735;28;20070;-70
2023/07/05 01:45:41;;;;;;;14.70;9.02;;;;;;;27.93;42.39;99426.22;5057584;28;20036;-70
2023/07/05 01:48:42;;;;;;;15.93;8.60;;;;;;;28.04;42.05;99425.13;5073924;28;20423;-70
2023/07/05 01:51:16;;;;;;;16.90;8.37;;;;;;;27.85;42.60;99421.28;5054167;28;20044;-70
2023/07/05 01:54:15;;;;;;;24.15;8.63;;;;;;;28.05;42.16;99420.47;5073924;28;20282;-71
2023/07/05 01:56:53;;;;;;;17.35;9.45;;;;;;;28.04;41.91;99436.03;5040744;28;20573;-71
2023/07/05 01:59:22;;;;;;;11.75;8.68;;;;;;;27.98;41.89;99427.03;5041004;28;20055;-70
2023/07/05 02:01:52;;;;;;;14.52;8.73;;;;;;;27.97;41.82;99428.13;5074137;28;20127;-70
2023/07/05 02:04:21;;;;;;;20.10;8.98;;;;;;;28.10;41.82;99432.19;5057588;28;20052;-71
2023/07/05 02:06:47;;;;;;;17.42;9.30;;;;;;;27.96;41.93;99429.22;5057445;28;20383;-70
2023/07/05 02:09:14;;;;;;;18.65;9.00;;;;;;;27.75;42.00;99433.03;5041169;28;20142;-70
2023/07/05 02:11:41;;;;;;;17.15;9.20;;;;;;;27.92;42.22;99432.78;5059122;28;20066;-70
2023/07/05 02:14:06;;;;;;;16.45;9.15;;;;;;;27.73;42.00;99431.66;5059272;28;20392;-70
2023/07/05 02:16:32;;;;;;;19.70;9.20;;;;;;;27.68;42.43;99437.94;5059404;28;20051;-71
2023/07/05 02:19:00;;;;;;;13.43;8.65;;;;;;;27.82;42.15;99421.84;5075497;28;20044;-70
2023/07/05 02:21:26;;;;;;;23.38;9.15;;;;;;;27.83;41.99;99423.50;5057571;28;20135;-70
2023/07/05 02:23:52;;;;;;;16.20;9.48;;;;;;;27.99;41.67;99427.84;5044494;28;20045;-70
2023/07/05 02:26:19;;;;;;;19.90;9.75;;;;;;;27.94;41.78;99433.31;5093622;28;20051;-70
2023/07/05 02:28:45;;;;;;;16.05;9.10;;;;;;;28.08;42.01;99430.84;5044027;28;20214;-70
2023/07/05 02:31:11;;;;;;;15.75;9.15;;;;;;;28.03;41.73;99435.22;5060731;28;20395;-71
2023/07/05 02:33:39;;;;;;;17.90;9.52;;;;;;;28.09;41.90;99419.66;5044683;28;20040;-71
2023/07/05 02:36:14;;;;;;;17.88;9.48;;;;;;;28.33;41.93;99434.31;5061712;28;20185;-71
2023/07/05 02:38:41;;;;;;;15.15;9.82;;;;;;;27.95;42.25;99429.50;5062057;28;20043;-73
2023/07/05 02:41:07;;;;;;;15.15;9.48;;;;;;;28.06;42.38;99435.75;5061113;28;20044;-70
2023/07/05 02:43:34;;;;;;;21.25;9.93;;;;;;;28.19;42.10;99429.69;5060460;28;20055;-70
2023/07/05 02:46:01;;;;;;;17.88;9.68;;;;;;;27.92;42.29;99439.03;5043787;28;20043;-70
2023/07/05 02:48:29;;;;;;;19.52;9.95;;;;;;;27.93;42.22;99437.97;5077333;28;20060;-70
2023/07/05 02:50:55;;;;;;;28.60;10.45;;;;;;;27.92;42.13;99430.06;5044350;28;20040;-71
2023/07/05 02:53:21;;;;;;;17.98;10.27;;;;;;;27.91;42.49;99429.22;5044287;28;20036;-70
2023/07/05 02:55:48;;;;;;;20.33;9.73;;;;;;;27.95;42.01;99427.56;5044273;28;20097;-71
2023/07/05 02:58:13;;;;;;;22.80;10.13;;;;;;;27.96;42.06;99434.69;5060836;28;20134;-70
2023/07/05 03:00:42;;;;;;;20.95;11.02;;;;;;;28.22;42.03;99438.16;5079045;28;20052;-71
2023/07/05 03:03:09;;;;;;;21.63;10.43;;;;;;;28.09;41.91;99441.50;5062124;28;20051;-70
2023/07/05 03:05:35;;;;;;;25.70;10.63;;;;;;;28.21;41.55;99449.38;5045804;28;20055;-71
2023/07/05 03:08:01;;;;;;;19.63;10.30;;;;;;;28.24;41.48;99440.63;5045694;28;20047;-70
2023/07/05 03:10:27;;;;;;;17.75;10.15;;;;;;;28.29;41.24;99437.88;5045670;28;20058;-71
2023/07/05 03:12:53;;;;;;;23.10;11.15;;;;;;;28.43;40.99;99436.22;5023473;28;20076;-70
2023/07/05 03:15:19;;;;;;;21.05;10.85;;;;;;;28.63;40.48;99444.38;5023411;28;20139;-70
2023/07/05 03:17:44;;;;;;;24.92;10.40;;;;;;;28.73;40.45;99449.78;5005708;28;20154;-70
2023/07/05 03:20:11;;;;;;;18.02;10.38;;;;;;;28.79;40.17;99445.91;5055272;28;20145;-70
2023/07/05 03:22:37;;;;;;;18.25;11.10;;;;;;;28.78;40.14;99450.59;5055473;28;20056;-70
2023/07/05 03:25:06;;;;;;;16.80;11.48;;;;;;;28.93;40.00;99438.72;5022500;28;20052;-70
2023/07/05 03:27:33;;;;;;;25.50;12.00;;;;;;;28.90;39.91;99445.59;5022208;28;20075;-70
2023/07/05 03:30:00;;;;;;;20.45;11.23;;;;;;;29.25;39.79;99447.31;5021830;28;20075;-70
2023/07/05 03:32:31;;;;;;;22.30;11.07;;;;;;;29.06;39.53;99436.22;5055729;28;20063;-71
2023/07/05 03:34:59;;;;;;;18.38;11.02;;;;;;;29.22;39.27;99442.41;5038034;28;20060;-71
2023/07/05 03:37:28;;;;;;;15.90;10.15;;;;;;;29.41;38.88;99444.22;5022041;28;20118;-70
2023/07/05 03:39:58;;;;;;;18.17;10.88;;;;;;;29.28;38.94;99446.75;5022812;28;20048;-71
2023/07/05 03:42:24;;;;;;;19.23;11.65;;;;;;;29.22;38.79;99447.88;4979350;28;20057;-70
2023/07/05 03:44:53;;;;;;;25.25;10.88;;;;;;;29.34;38.77;99448.34;4963410;28;20046;-70
2023/07/05 03:47:19;;;;;;;21.40;10.93;;;;;;;29.35;38.76;99450.78;4940978;28;20078;-70
2023/07/05 03:49:45;;;;;;;24.75;11.68;;;;;;;29.53;38.42;99454.78;4930688;28;20152;-71
2023/07/05 03:52:14;;;;;;;22.15;11.02;;;;;;;29.60;38.36;99445.13;4900035;29;20157;-70
2023/07/05 03:54:43;;;;;;;24.40;10.38;;;;;;;29.70;38.55;99455.22;4899809;29;20143;-70
2023/07/05 03:57:10;;;;;;;32.33;10.90;;;;;;;29.54;38.73;99453.66;4900345;29;20111;-70
2023/07/05 03:59:37;;;;;;;25.05;10.52;;;;;;;29.69;38.60;99461.00;4900590;29;20056;-70
2023/07/05 04:02:02;;;;;;;21.25;11.10;;;;;;;29.72;38.50;99455.75;4883919;29;20115;-70
2023/07/05 04:04:29;;;;;;;21.55;11.38;;;;;;;30.07;38.46;99452.69;4899341;29;20056;-72
2023/07/05 04:06:56;;;;;;;20.40;11.57;;;;;;;29.75;38.40;99455.19;4897847;29;20059;-70
2023/07/05 04:09:24;;;;;;;19.00;10.60;;;;;;;30.00;38.19;99448.66;4864746;29;20052;-70
2023/07/05 04:11:50;;;;;;;20.00;10.60;;;;;;;29.83;38.17;99454.53;4849481;29;20052;-70
2023/07/05 04:14:16;;;;;;;18.13;9.95;;;;;;;29.87;37.86;99444.66;4864966;29;20063;-71
2023/07/05 04:16:43;;;;;;;19.63;9.52;;;;;;;29.81;37.87;99456.78;4880141;29;20059;-70
2023/07/05 04:19:10;;;;;;;17.55;9.20;;;;;;;30.15;37.72;99451.25;4928263;29;20051;-70
2023/07/05 04:21:37;;;;;;;20.38;10.05;;;;;;;30.23;37.20;99447.91;4917755;29;20054;-70
2023/07/05 04:24:07;;;;;;;17.98;10.18;;;;;;;30.43;37.31;99447.69;4906263;28;20133;-70
2023/07/05 04:26:34;;;;;;;19.50;11.00;;;;;;;30.35;37.09;99456.53;4974793;28;20061;-70
2023/07/05 04:29:03;;;;;;;23.80;9.65;;;;;;;30.50;36.80;99454.44;4974799;28;20053;-71
2023/07/05 04:31:29;;;;;;;16.05;9.20;;;;;;;30.70;36.32;99447.88;4943089;28;20053;-70
2023/07/05 04:33:57;;;;;;;21.27;8.80;;;;;;;30.72;36.68;99446.47;4965759;28;20477;-70
2023/07/05 04:36:24;;;;;;;22.35;10.00;;;;;;;30.92;36.22;99450.94;4981392;28;20169;-70
2023/07/05 04:38:50;;;;;;;23.27;8.70;;;;;;;30.86;36.06;99449.38;5050341;28;20527;-71
2023/07/05 04:41:18;;;;;;;15.68;8.05;;;;;;;30.95;35.37;99451.13;5023906;28;20055;-70
2023/07/05 04:43:43;;;;;;;17.02;8.70;;;;;;;31.07;35.90;99461.69;5057557;28;20384;-70
2023/07/05 04:46:09;;;;;;;20.77;9.00;;;;;;;31.10;35.41;99458.34;5039345;28;20495;-70
2023/07/05 04:48:40;;;;;;;16.63;8.70;;;;;;;31.25;35.20;99452.63;5056953;28;20557;-70
2023/07/05 04:51:08;;;;;;;22.25;8.82;;;;;;;31.31;35.26;99451.47;5023360;28;20058;-71
2023/07/05 04:53:37;;;;;;;17.25;8.10;;;;;;;31.48;35.11;99450.94;5040032;28;20090;-70
2023/07/05 04:56:04;;;;;;;24.33;9.57;;;;;;;31.36;35.55;99459.63;5073350;28;20197;-71
2023/07/05 04:58:32;;;;;;;25.73;9.55;;;;;;;31.67;35.32;99466.28;5040279;28;20052;-70
2023/07/05 05:01:03;;;;;;;14.77;7.97;;;;;;;32.06;34.69;99465.94;5073143;28;20365;-71
2023/07/05 05:03:33;;;;;;;17.35;8.50;;;;;;;32.08;34.70;99467.25;5057194;28;20040;-70
2023/07/05 05:06:01;;;;;;;24.55;7.80;;;;;;;32.22;34.29;99467.25;5057015;28;20164;-70
2023/07/05 05:08:27;;;;;;;20.17;8.38;;;;;;;32.22;33.70;99465.34;5056502;28;20372;-70
2023/07/05 05:10:57;;;;;;;19.02;8.30;;;;;;;32.69;33.26;99448.47;4980422;28;20514;-70
2023/07/05 05:13:24;;;;;;;20.88;7.97;;;;;;;32.90;32.71;99459.06;4995089;28;20113;-70
2023/07/05 05:15:50;;;;;;;18.15;8.35;;;;;;;33.03;32.38;99459.03;5016588;28;20513;-70
2023/07/05 05:18:18;;;;;;;23.42;7.57;;;;;;;33.28;32.30;99455.72;5017257;28;20036;-70
2023/07/05 05:20:44;;;;;;;20.88;8.25;;;;;;;33.30;32.18;99463.69;5017514;28;20053;-70
2023/07/05 05:23:10;;;;;;;17.60;7.47;;;;;;;33.18;31.76;99460.66;5000415;28;20138;-70
2023/07/05 05:25:36;;;;;;;17.42;7.70;;;;;;;33.19;31.79;99454.84;5016350;28;20107;-70
2023/07/05 05:28:03;;;;;;;15.15;6.85;;;;;;;33.11;31.61;99457.50;5017093;28;20075;-70
2023/07/05 05:30:32;;;;;;;12.73;7.65;;;;;;;33.18;32.16;99460.66;4984246;28;20480;-70
2023/07/05 05:33:00;;;;;;;20.38;7.38;;;;;;;33.07;31.94;99459.25;4968777;28;20067;-70
2023/07/05 05:35:27;;;;;;;16.95;7.40;;;;;;;33.11;31.71;99454.75;5016914;28;20080;-70
2023/07/05 05:37:55;;;;;;;12.88;6.82;;;;;;;33.01;32.04;99458.56;5000549;28;20041;-71
2023/07/05 05:40:22;;;;;;;14.45;7.57;;;;;;;33.09;31.40;99457.81;5016600;28;20164;-70
2023/07/05 05:42:48;;;;;;;25.83;7.03;;;;;;;33.14;30.91;99463.19;5051857;28;20067;-70
2023/07/05 05:45:15;;;;;;;17.23;6.78;;;;;;;33.23;31.09;99466.84;5016484;28;20065;-70
2023/07/05 05:47:43;;;;;;;14.88;6.45;;;;;;;33.73;30.70;99468.44;5016238;28;20056;-70
2023/07/05 05:50:09;;;;;;;20.13;7.43;;;;;;;33.68;31.10;99464.97;5000102;28;20048;-71
2023/07/05 05:52:36;;;;;;;20.45;7.50;;;;;;;33.98;30.54;99476.06;4999121;28;20057;-72
2023/07/05 05:55:04;;;;;;;21.10;7.25;;;;;;;34.14;29.90;99474.56;5029889;28;20063;-70
2023/07/05 05:57:30;;;;;;;20.05;7.60;;;;;;;34.21;29.74;99474.91;5014840;28;20556;-71
2023/07/05 05:59:55;;;;;;;14.88;6.90;;;;;;;34.24;29.41;99479.00;5017246;28;20049;-72
2023/07/05 06:02:21;;;;;;;16.88;6.40;;;;;;;34.27;29.16;99485.81;5017182;28;20033;-70
2023/07/05 06:04:50;;;;;;;12.23;6.15;;;;;;;34.28;29.00;99481.91;4997179;28;20136;-71
2023/07/05 06:07:16;;;;;;;13.32;6.45;;;;;;;34.29;28.20;99487.09;4981025;28;20049;-75
2023/07/05 06:09:46;;;;;;;17.67;6.07;;;;;;;34.57;28.38;99483.06;4973844;28;20054;-71
2023/07/05 06:12:15;;;;;;;13.25;6.07;;;;;;;34.56;27.88;99488.91;4942049;28;20050;-70
2023/07/05 06:14:41;;;;;;;17.08;6.55;;;;;;;34.68;28.08;99481.66;4942477;28;20135;-71
2023/07/05 06:17:11;;;;;;;15.90;6.78;;;;;;;34.86;27.58;99482.53;4934724;29;20526;-71
2023/07/05 06:19:37;;;;;;;16.75;6.57;;;;;;;34.91;27.42;99496.19;4907514;29;20059;-71
2023/07/05 06:22:05;;;;;;;14.88;6.47;;;;;;;35.06;27.60;99477.22;4907853;29;20171;-71
2023/07/05 06:24:34;;;;;;;10.52;5.95;;;;;;;35.58;27.21;99486.41;4939647;29;20059;-70
2023/07/05 06:27:01;;;;;;;15.40;7.57;;;;;;;35.31;27.14;99481.97;4907183;29;20055;-70
2023/07/05 06:29:27;;;;;;;10.73;6.15;;;;;;;35.23;26.78;99484.72;4923074;29;20059;-70
2023/07/05 06:31:54;;;;;;;14.13;6.75;;;;;;;35.38;26.71;99476.00;4922881;29;20420;-70
2023/07/05 06:34:24;;;;;;;17.17;6.47;;;;;;;35.90;26.03;99474.03;4954455;29;20078;-70
2023/07/05 06:36:50;;;;;;;17.25;6.47;;;;;;;36.05;25.75;99476.28;4973833;28;20506;-70
2023/07/05 06:39:17;;;;;;;18.85;6.95;;;;;;;36.34;25.18;99482.72;4974120;28;20065;-70
2023/07/05 06:41:43;;;;;;;19.02;6.38;;;;;;;36.63;24.20;99477.22;4941723;28;20070;-70
2023/07/05 06:44:10;;;;;;;17.50;6.25;;;;;;;36.87;24.22;99479.44;4941600;28;20049;-70
2023/07/05 06:46:39;;;;;;;10.30;5.82;;;;;;;36.82;23.87;99472.13;4956194;28;20148;-70
2023/07/05 06:49:07;;;;;;;18.10;6.20;;;;;;;36.62;23.89;99472.03;4997326;28;20561;-70
2023/07/05 06:51:33;;;;;;;12.35;5.65;;;;;;;36.40;24.20;99478.63;4985378;28;20079;-70
2023/07/05 06:53:58;;;;;;;6.72;5.00;;;;;;;36.43;23.53;99483.50;5000423;28;20060;-70
2023/07/05 06:56:26;;;;;;;14.35;6.00;;;;;;;36.41;23.98;99473.94;4996747;28;20066;-70
2023/07/05 06:59:14;;;;;;;15.48;6.05;;;;;;;36.39;23.78;99473.44;4987121;28;20046;-70
2023/07/05 07:01:40;;;;;;;19.70;6.03;;;;;;;36.60;23.47;99457.72;4926465;28;20611;-70
2023/07/05 07:04:07;;;;;;;15.70;5.82;;;;;;;37.02;22.71;99476.06;4911270;28;20451;-70
2023/07/05 07:06:35;;;;;;;11.23;5.40;;;;;;;37.03;22.31;99470.19;4925959;28;20078;-70
2023/07/05 07:09:05;;;;;;;13.85;5.57;;;;;;;37.02;22.88;99471.34;4933878;29;20206;-70
2023/07/05 07:11:33;;;;;;;14.38;5.63;;;;;;;37.04;22.05;99473.78;4900042;29;20167;-70
2023/07/05 07:13:59;;;;;;;11.93;5.43;;;;;;;37.07;22.47;99456.50;4892411;29;20106;-71
2023/07/05 07:16:25;;;;;;;20.40;6.40;;;;;;;37.50;21.67;99468.09;4896845;29;20494;-70
2023/07/05 07:18:52;;;;;;;12.95;5.25;;;;;;;37.68;22.09;99465.97;4881194;29;20497;-70
2023/07/05 07:21:19;;;;;;;9.35;5.50;;;;;;;38.14;20.66;99476.78;4881893;29;20064;-69
2023/07/05 07:23:47;;;;;;;14.40;5.07;;;;;;;38.23;20.75;99470.00;4881996;29;20079;-70
2023/07/05 07:26:17;;;;;;;8.80;5.30;;;;;;;38.49;18.94;99464.94;4882378;29;20477;-70
2023/07/05 07:28:49;;;;;;;8.80;5.10;;;;;;;38.88;18.97;99468.22;4920217;29;20527;-70
2023/07/05 07:31:29;;;;;;;19.40;5.60;;;;;;;38.82;19.41;99461.28;4897297;29;20053;-70
2023/07/05 07:33:56;;;;;;;10.90;4.93;;;;;;;37.74;18.64;99432.16;4901622;29;20139;-71
2023/07/05 07:36:26;;;;;;;11.18;5.57;;;;;;;37.59;19.30;99470.78;4918718;29;20146;-70
2023/07/05 07:38:54;;;;;;;9.15;4.45;;;;;;;38.38;19.31;99449.09;4920279;28;20047;-70
2023/07/05 07:41:31;;;;;;;8.93;5.07;;;;;;;37.61;19.20;99468.47;4976923;28;20057;-70
2023/07/05 07:44:02;;;;;;;10.88;5.22;;;;;;;38.48;19.29;99462.53;4985852;28;20057;-69
2023/07/05 07:46:30;;;;;;;12.23;5.88;;;;;;;39.61;18.58;99458.63;5001900;28;20082;-69
2023/07/05 07:48:59;;;;;;;11.02;5.60;;;;;;;39.21;17.60;99466.91;5001467;28;20148;-69
2023/07/05 07:51:31;;;;;;;6.85;4.75;;;;;;;39.71;16.83;99474.78;4985152;28;20049;-69
2023/07/05 07:53:58;;;;;;;12.98;5.15;;;;;;;40.40;16.31;99466.78;5016697;28;20037;-70
2023/07/05 07:56:26;;;;;;;7.97;4.75;;;;;;;40.60;16.12;99446.22;5033620;28;20140;-68
2023/07/05 07:58:55;;;;;;;11.18;5.03;;;;;;;39.00;17.35;99457.13;4985646;28;20084;-69
2023/07/05 08:01:30;;;;;;;12.27;5.40;;;;;;;39.21;17.73;99455.00;5035281;28;20075;-69
2023/07/05 08:04:02;;;;;;;10.30;5.63;;;;;;;39.46;17.58;99460.16;5019132;28;20068;-69
2023/07/05 08:06:40;;;;;;;15.20;5.68;;;;;;;39.23;18.43;99449.91;5034777;28;20044;-69
2023/07/05 08:09:16;;;;;;;9.38;5.10;;;;;;;39.23;18.28;99449.91;5059790;28;20047;-69
2023/07/05 08:11:42;;;;;;;8.07;5.30;;;;;;;38.89;18.36;99445.63;5061244;28;20136;-70
2023/07/05 08:14:10;;;;;;;14.68;5.47;;;;;;;39.42;18.07;99450.91;5077889;28;20089;-69
2023/07/05 08:16:37;;;;;;;12.68;5.05;;;;;;;40.50;17.31;99457.91;5054469;28;20070;-69
2023/07/05 08:19:04;;;;;;;14.98;5.15;;;;;;;41.19;17.37;99460.81;5021883;28;20052;-69
2023/07/05 08:21:31;;;;;;;8.50;5.30;;;;;;;40.71;16.97;99466.00;5037408;28;20058;-69
2023/07/05 08:23:58;;;;;;;8.43;5.00;;;;;;;40.71;17.63;99461.25;5004945;28;20060;-69
2023/07/05 08:26:24;;;;;;;9.98;5.47;;;;;;;39.63;18.25;99462.66;5004574;28;20052;-69
2023/07/05 08:28:50;;;;;;;9.15;5.53;;;;;;;39.63;18.46;99459.03;5020928;28;20488;-70
2023/07/05 08:31:16;;;;;;;8.73;5.28;;;;;;;39.20;19.20;99465.31;5020759;28;20515;-70
2023/07/05 08:33:45;;;;;;;11.02;5.60;;;;;;;38.62;19.53;99457.47;5021042;28;20139;-70
2023/07/05 08:36:20;;;;;;;11.27;5.43;;;;;;;38.71;19.95;99456.19;5021639;28;20377;-70
2023/07/05 08:38:48;;;;;;;7.82;5.05;;;;;;;38.33;19.93;99461.25;5020886;28;20052;-69
2023/07/05 08:41:29;;;;;;;16.08;5.47;;;;;;;38.58;19.70;99460.13;4978349;28;20064;-70
2023/07/05 08:44:17;;;;;;;14.13;5.55;;;;;;;38.62;20.16;99469.41;4978228;28;20186;-69
2023/07/05 08:46:55;;;;;;;12.73;5.25;;;;;;;39.07;20.06;99462.91;5004038;28;20051;-72
2023/07/05 08:49:28;;;;;;;13.10;4.90;;;;;;;39.44;19.91;99467.25;5054322;28;20542;-69
2023/07/05 08:51:59;;;;;;;9.95;5.50;;;;;;;38.95;19.98;99463.69;5021222;28;20401;-69
2023/07/05 08:54:32;;;;;;;;;;;;;;;40.01;19.32;99471.28;5004742;28;20148;-69
2023/07/05 08:57:10;;;;;;;11.13;6.05;;;;;;;40.99;18.66;99466.66;5021515;28;20265;-69
2023/07/05 08:59:50;;;;;;;12.57;5.75;;;;;;;42.52;17.62;99468.28;5053645;28;20044;-70
2023/07/05 09:02:23;;;;;;;12.83;5.90;;;;;;;42.17;17.15;99473.22;5037134;28;20056;-70
2023/07/05 09:04:50;;;;;;;15.02;5.82;;;;;;;43.28;16.55;99483.06;5053538;28;20036;-69
2023/07/05 09:07:30;;;;;;;10.23;5.30;;;;;;;43.80;16.10;99491.34;5020337;28;20080;-71
2023/07/05 09:10:14;;;;;;;13.15;5.95;;;;;;;43.49;16.09;99473.00;5020495;28;20432;-70
2023/07/05 09:13:06;;;;;;;11.57;6.20;;;;;;;43.28;16.42;99481.06;5045034;28;20047;-69
2023/07/05 09:15:45;;;;;;;12.15;5.78;;;;;;;44.78;15.42;99489.59;5059161;28;20056;-70
2023/07/05 09:18:56;;;;;;;10.35;5.70;;;;;;;44.14;15.58;99474.19;5057856;28;20384;-70
2023/07/05 09:21:51;;;;;;;17.42;6.00;;;;;;;43.38;16.24;99477.59;5055548;28;20044;-70
2023/07/05 09:24:39;;;;;;;9.32;5.97;;;;;;;41.37;17.67;99473.16;5074712;28;20051;-70
2023/07/05 09:27:18;;;;;;;13.07;5.80;;;;;;;40.90;18.18;99466.88;5060152;28;20052;-69
2023/07/05 09:29:54;;;;;;;14.15;5.53;;;;;;;39.61;19.23;99464.16;5056295;28;20083;-69
2023/07/05 09:32:29;;;;;;;13.20;6.53;;;;;;;39.07;19.99;99454.56;5071617;28;20495;-70
2023/07/05 09:35:00;;;;;;;13.35;6.00;;;;;;;39.95;19.27;99477.50;5017105;28;20049;-70
2023/07/05 09:37:36;;;;;;;10.52;6.22;;;;;;;40.43;18.94;99468.84;5017463;28;20049;-70
2023/07/05 09:40:38;;;;;;;8.68;5.63;;;;;;;43.16;16.77;99464.53;5017060;28;20154;-70
2023/07/05 09:43:08;;;;;;;10.35;5.60;;;;;;;44.67;14.99;99469.13;4980962;28;20100;-70
2023/07/05 09:45:34;;;;;;;12.05;5.57;;;;;;;43.94;15.61;99464.38;4998005;28;20057;-70
2023/07/05 09:48:04;;;;;;;11.70;5.43;;;;;;;44.21;15.37;99468.63;5001427;28;20099;-70
2023/07/05 09:50:31;;;;;;;12.05;6.00;;;;;;;43.73;15.98;99466.91;5001566;28;20068;-70
2023/07/05 09:53:32;;;;;;;14.73;5.85;;;;;;;43.77;15.29;99469.72;4984685;28;20045;-70
2023/07/05 09:56:02;;;;;;;8.82;5.50;;;;;;;42.69;16.28;99475.31;4984377;28;20469;-70
2023/07/05 09:58:28;;;;;;;9.25;5.40;;;;;;;42.06;17.30;99454.66;5017222;28;20062;-70
2023/07/05 10:00:56;;;;;;;13.68;5.60;;;;;;;41.21;17.99;99441.72;4997031;28;20049;-70
2023/07/05 10:03:22;;;;;;;13.40;6.03;;;;;;;40.61;18.81;99456.16;4997620;28;20061;-70
2023/07/05 10:05:51;;;;;;;11.65;6.30;;;;;;;40.16;19.15;99464.16;4999250;28;20226;-71
2023/07/05 10:08:18;;;;;;;17.73;5.93;;;;;;;39.42;19.50;99437.03;4977802;28;20560;-69
2023/07/05 10:10:44;;;;;;;17.00;6.10;;;;;;;38.66;20.61;99437.00;4977680;28;20491;-69
2023/07/05 10:13:20;;;;;;;15.43;6.53;;;;;;;37.87;22.02;99453.25;4977657;28;20050;-70
2023/07/05 10:15:49;;;;;;;14.30;6.28;;;;;;;37.27;22.72;99446.59;4977739;28;20065;-69
2023/07/05 10:18:30;;;;;;;9.63;6.72;;;;;;;37.25;23.08;99455.25;4907392;29;20488;-69
2023/07/05 10:21:02;;;;;;;20.20;6.68;;;;;;;37.19;23.08;99443.53;4903954;29;20469;-70
2023/07/05 10:23:30;;;;;;;11.05;6.47;;;;;;;37.24;23.52;99439.78;4920033;29;20051;-70
2023/07/05 10:26:02;;;;;;;14.93;6.05;;;;;;;37.13;23.63;99444.06;4917225;29;20059;-69
2023/07/05 10:28:30;;;;;;;11.88;6.50;;;;;;;37.23;23.71;99449.22;4901284;29;20062;-70
2023/07/05 10:31:03;;;;;;;12.88;7.22;;;;;;;36.93;24.51;99455.94;4851921;29;20117;-69
2023/07/05 10:33:33;;;;;;;19.05;7.28;;;;;;;36.72;25.52;99455.06;4894581;29;20063;-69
2023/07/05 10:36:03;;;;;;;14.25;6.82;;;;;;;36.38;25.74;99456.00;4863796;29;20052;-70
2023/07/05 10:38:34;;;;;;;12.13;6.75;;;;;;;36.07;26.10;99476.75;4889045;29;20047;-70
2023/07/05 10:41:28;;;;;;;15.63;6.90;;;;;;;36.22;26.75;99479.00;4919982;29;20056;-69
2023/07/05 10:44:07;;;;;;;13.20;6.35;;;;;;;35.94;26.95;99478.56;4903053;29;20052;-70
2023/07/05 10:46:36;;;;;;;11.10;6.38;;;;;;;36.11;26.81;99475.78;4888683;29;20187;-70
2023/07/05 10:49:09;;;;;;;10.25;5.95;;;;;;;36.50;25.85;99481.06;4904473;29;20064;-70
2023/07/05 10:51:40;;;;;;;15.85;6.70;;;;;;;36.75;25.63;99473.78;4920969;29;20067;-70
2023/07/05 10:54:20;;;;;;;9.60;6.20;;;;;;;36.44;25.79;99484.31;4905823;29;20055;-69
2023/07/05 10:56:46;;;;;;;11.40;5.95;;;;;;;36.55;25.61;99499.44;4960228;28;20092;-69
2023/07/05 11:00:01;;;;;;;14.85;6.57;;;;;;;36.67;25.81;99485.69;4961878;28;20101;-69
2023/07/05 11:02:29;;;;;;;12.38;6.68;;;;;;;36.28;26.76;99484.03;5005272;28;20065;-69
2023/07/05 11:04:57;;;;;;;16.98;7.20;;;;;;;35.73;27.12;99483.13;5009226;28;20179;-69
2023/07/05 11:07:24;;;;;;;19.02;6.93;;;;;;;36.39;26.59;99490.03;5003187;28;20056;-69
2023/07/05 11:09:55;;;;;;;11.88;6.93;;;;;;;36.04;26.62;99474.66;4987091;28;20094;-69
2023/07/05 11:12:27;;;;;;;17.35;6.80;;;;;;;35.81;27.04;99484.25;4976059;28;20127;-69
2023/07/05 11:14:56;;;;;;;13.57;7.00;;;;;;;35.99;26.98;99483.13;5003064;28;20053;-69
2023/07/05 11:17:36;;;;;;;17.97;6.90;;;;;;;36.56;25.91;99489.97;5019164;28;20517;-72
2023/07/05 11:20:53;;;;;;;11.48;7.22;;;;;;;36.34;26.39;99495.75;5002822;28;20095;-69
2023/07/05 11:23:44;;;;;;;17.63;7.55;;;;;;;36.14;26.44;99505.53;5019024;28;20060;-68
2023/07/05 11:26:46;;;;;;;11.45;6.55;;;;;;;35.68;27.17;99495.19;5018805;28;20048;-68
2023/07/05 11:29:32;;;;;;;12.80;6.80;;;;;;;35.90;26.52;99505.25;5031699;28;20552;-70
2023/07/05 11:32:08;;;;;;;11.98;6.68;;;;;;;35.41;26.54;99509.28;4999008;28;20052;-69
2023/07/05 11:34:43;;;;;;;11.43;6.95;;;;;;;35.07;27.08;99498.19;4957092;28;20046;-69
2023/07/05 11:37:11;;;;;;;16.13;6.65;;;;;;;35.14;26.77;99495.75;4957658;28;20070;-69
2023/07/05 11:39:39;;;;;;;12.45;7.03;;;;;;;35.20;26.54;99502.75;4919306;29;20083;-69
2023/07/05 11:42:26;;;;;;;14.10;7.72;;;;;;;35.23;27.00;99499.34;4885079;29;20068;-69
2023/07/05 11:44:55;;;;;;;10.95;7.18;;;;;;;35.59;26.39;99499.06;4900816;29;20051;-69